sensor_id;sensor_type;location;lat;lon;timestamp;temperature;humidity
40255;DHT22;25973;52.368;4.940;2022-09-03T00:00:32;19.90;98.40
40255;DHT22;25973;52.368;4.940;2022-09-03T00:03:12;19.90;98.40
40255;DHT22;25973;52.368;4.940;2022-09-03T00:06:12;19.90;98.50
40255;DHT22;25973;52.368;4.940;2022-09-03T00:08:57;19.80;98.40
40255;DHT22;25973;52.368;4.940;2022-09-03T00:11:34;19.80;98.70
40255;DHT22;25973;52.368;4.940;2022-09-03T00:14:08;19.80;98.70
40255;DHT22;25973;52.368;4.940;2022-09-03T00:16:50;19.70;99.00
40255;DHT22;25973;52.368;4.940;2022-09-03T00:19:19;19.70;99.00
40255;DHT22;25973;52.368;4.940;2022-09-03T00:21:59;19.70;99.20
40255;DHT22;25973;52.368;4.940;2022-09-03T00:24:29;19.70;99.00
40255;DHT22;25973;52.368;4.940;2022-09-03T00:26:59;19.60;98.90
40255;DHT22;25973;52.368;4.940;2022-09-03T00:29:38;19.70;98.90
40255;DHT22;25973;52.368;4.940;2022-09-03T00:32:10;19.70;98.80
40255;DHT22;25973;52.368;4.940;2022-09-03T00:34:42;19.60;98.70
40255;DHT22;25973;52.368;4.940;2022-09-03T00:37:10;19.60;98.50
40255;DHT22;25973;52.368;4.940;2022-09-03T00:39:36;19.50;98.60
40255;DHT22;25973;52.368;4.940;2022-09-03T00:47:27;19.50;98.60
40255;DHT22;25973;52.368;4.940;2022-09-03T00:49:57;19.40;98.50
40255;DHT22;25973;52.368;4.940;2022-09-03T00:52:43;19.30;98.70
40255;DHT22;25973;52.368;4.940;2022-09-03T01:00:59;19.30;98.80
40255;DHT22;25973;52.368;4.940;2022-09-03T01:06:23;19.20;98.70
40255;DHT22;25973;52.368;4.940;2022-09-03T01:11:51;19.20;98.90
40255;DHT22;25973;52.368;4.940;2022-09-03T01:23:47;19.20;98.70
40255;DHT22;25973;52.368;4.940;2022-09-03T01:29:28;19.20;98.70
40255;DHT22;25973;52.368;4.940;2022-09-03T01:35:07;19.10;98.70
40255;DHT22;25973;52.368;4.940;2022-09-03T01:45:44;19.00;98.80
40255;DHT22;25973;52.368;4.940;2022-09-03T01:48:29;19.00;98.60
40255;DHT22;25973;52.368;4.940;2022-09-03T02:02:26;18.90;98.90
40255;DHT22;25973;52.368;4.940;2022-09-03T02:07:23;18.80;99.10
40255;DHT22;25973;52.368;4.940;2022-09-03T02:09:49;18.90;99.10
40255;DHT22;25973;52.368;4.940;2022-09-03T02:12:15;18.80;99.10
40255;DHT22;25973;52.368;4.940;2022-09-03T02:14:43;18.80;99.30
40255;DHT22;25973;52.368;4.940;2022-09-03T02:17:09;18.80;99.30
40255;DHT22;25973;52.368;4.940;2022-09-03T02:19:35;18.70;99.30
40255;DHT22;25973;52.368;4.940;2022-09-03T02:22:02;18.70;99.40
40255;DHT22;25973;52.368;4.940;2022-09-03T02:24:28;18.70;99.40
40255;DHT22;25973;52.368;4.940;2022-09-03T02:26:53;18.60;99.20
40255;DHT22;25973;52.368;4.940;2022-09-03T02:29:20;18.60;99.20
40255;DHT22;25973;52.368;4.940;2022-09-03T02:31:46;18.60;99.10
40255;DHT22;25973;52.368;4.940;2022-09-03T02:34:11;18.60;99.10
40255;DHT22;25973;52.368;4.940;2022-09-03T02:36:41;18.60;99.10
40255;DHT22;25973;52.368;4.940;2022-09-03T02:39:06;18.60;99.10
40255;DHT22;25973;52.368;4.940;2022-09-03T02:41:32;18.50;99.10
40255;DHT22;25973;52.368;4.940;2022-09-03T02:44:24;18.50;99.10
40255;DHT22;25973;52.368;4.940;2022-09-03T02:46:59;18.40;99.10
40255;DHT22;25973;52.368;4.940;2022-09-03T02:49:25;18.50;99.10
40255;DHT22;25973;52.368;4.940;2022-09-03T02:52:04;18.50;99.10
40255;DHT22;25973;52.368;4.940;2022-09-03T02:54:31;18.40;99.00
40255;DHT22;25973;52.368;4.940;2022-09-03T02:57:03;18.40;99.20
40255;DHT22;25973;52.368;4.940;2022-09-03T02:59:28;18.40;99.10
40255;DHT22;25973;52.368;4.940;2022-09-03T03:01:54;18.40;99.20
40255;DHT22;25973;52.368;4.940;2022-09-03T03:04:20;18.40;99.20
40255;DHT22;25973;52.368;4.940;2022-09-03T03:06:46;18.30;99.20
40255;DHT22;25973;52.368;4.940;2022-09-03T03:09:11;18.30;99.10
40255;DHT22;25973;52.368;4.940;2022-09-03T03:11:37;18.30;99.30
40255;DHT22;25973;52.368;4.940;2022-09-03T03:14:04;18.30;99.30
40255;DHT22;25973;52.368;4.940;2022-09-03T03:16:30;18.20;99.30
40255;DHT22;25973;52.368;4.940;2022-09-03T03:18:56;18.20;99.20
40255;DHT22;25973;52.368;4.940;2022-09-03T03:21:22;18.30;99.40
40255;DHT22;25973;52.368;4.940;2022-09-03T03:23:47;18.20;99.40
40255;DHT22;25973;52.368;4.940;2022-09-03T03:26:16;18.20;99.50
40255;DHT22;25973;52.368;4.940;2022-09-03T03:28:43;18.20;99.50
40255;DHT22;25973;52.368;4.940;2022-09-03T03:31:15;18.20;99.70
40255;DHT22;25973;52.368;4.940;2022-09-03T03:33:41;18.20;99.60
40255;DHT22;25973;52.368;4.940;2022-09-03T03:36:14;18.10;99.50
40255;DHT22;25973;52.368;4.940;2022-09-03T03:38:42;18.10;99.60
40255;DHT22;25973;52.368;4.940;2022-09-03T03:41:10;18.10;99.50
40255;DHT22;25973;52.368;4.940;2022-09-03T03:43:36;18.00;99.50
40255;DHT22;25973;52.368;4.940;2022-09-03T03:46:01;18.10;99.50
40255;DHT22;25973;52.368;4.940;2022-09-03T03:48:27;18.00;99.50
40255;DHT22;25973;52.368;4.940;2022-09-03T03:50:53;18.00;99.60
40255;DHT22;25973;52.368;4.940;2022-09-03T03:53:19;18.00;99.60
40255;DHT22;25973;52.368;4.940;2022-09-03T03:55:55;18.00;99.50
40255;DHT22;25973;52.368;4.940;2022-09-03T03:58:21;17.90;99.70
40255;DHT22;25973;52.368;4.940;2022-09-03T04:00:46;18.00;99.60
40255;DHT22;25973;52.368;4.940;2022-09-03T04:03:14;18.00;99.70
40255;DHT22;25973;52.368;4.940;2022-09-03T04:05:39;17.90;99.80
40255;DHT22;25973;52.368;4.940;2022-09-03T04:08:05;17.90;99.90
40255;DHT22;25973;52.368;4.940;2022-09-03T04:10:31;17.80;99.90
40255;DHT22;25973;52.368;4.940;2022-09-03T04:12:56;17.80;99.90
40255;DHT22;25973;52.368;4.940;2022-09-03T04:15:22;17.80;99.90
40255;DHT22;25973;52.368;4.940;2022-09-03T04:17:48;17.70;99.90
40255;DHT22;25973;52.368;4.940;2022-09-03T04:20:13;17.70;99.90
40255;DHT22;25973;52.368;4.940;2022-09-03T04:22:39;17.70;99.90
40255;DHT22;25973;52.368;4.940;2022-09-03T04:25:04;17.70;99.90
40255;DHT22;25973;52.368;4.940;2022-09-03T04:27:30;17.70;99.90
40255;DHT22;25973;52.368;4.940;2022-09-03T04:29:55;17.70;99.90
40255;DHT22;25973;52.368;4.940;2022-09-03T04:32:21;17.70;99.90
40255;DHT22;25973;52.368;4.940;2022-09-03T04:35:05;17.70;99.90
40255;DHT22;25973;52.368;4.940;2022-09-03T04:37:31;17.70;99.90
40255;DHT22;25973;52.368;4.940;2022-09-03T04:39:57;17.60;99.90
40255;DHT22;25973;52.368;4.940;2022-09-03T04:42:23;17.60;99.90
40255;DHT22;25973;52.368;4.940;2022-09-03T04:44:49;17.60;99.90
40255;DHT22;25973;52.368;4.940;2022-09-03T04:47:14;17.60;99.90
40255;DHT22;25973;52.368;4.940;2022-09-03T04:49:40;17.50;99.90
40255;DHT22;25973;52.368;4.940;2022-09-03T04:52:06;17.50;99.90
40255;DHT22;25973;52.368;4.940;2022-09-03T04:54:31;17.50;99.90
40255;DHT22;25973;52.368;4.940;2022-09-03T04:56:57;17.50;99.90
40255;DHT22;25973;52.368;4.940;2022-09-03T04:59:22;17.50;99.90
40255;DHT22;25973;52.368;4.940;2022-09-03T05:01:48;17.50;99.90
40255;DHT22;25973;52.368;4.940;2022-09-03T05:04:14;17.50;99.90
40255;DHT22;25973;52.368;4.940;2022-09-03T05:06:39;17.50;99.90
40255;DHT22;25973;52.368;4.940;2022-09-03T05:09:05;17.50;99.90
40255;DHT22;25973;52.368;4.940;2022-09-03T05:11:30;17.50;99.90
40255;DHT22;25973;52.368;4.940;2022-09-03T05:13:58;17.50;99.90
40255;DHT22;25973;52.368;4.940;2022-09-03T05:16:25;17.50;99.90
40255;DHT22;25973;52.368;4.940;2022-09-03T05:18:54;17.50;99.90
40255;DHT22;25973;52.368;4.940;2022-09-03T05:21:20;17.50;99.90
40255;DHT22;25973;52.368;4.940;2022-09-03T05:23:48;17.40;99.90
40255;DHT22;25973;52.368;4.940;2022-09-03T05:26:20;17.40;99.90
40255;DHT22;25973;52.368;4.940;2022-09-03T05:28:46;17.40;99.90
40255;DHT22;25973;52.368;4.940;2022-09-03T05:31:17;17.40;99.90
40255;DHT22;25973;52.368;4.940;2022-09-03T05:33:45;17.40;99.90
40255;DHT22;25973;52.368;4.940;2022-09-03T05:36:13;17.40;99.90
40255;DHT22;25973;52.368;4.940;2022-09-03T05:38:39;17.30;99.90
40255;DHT22;25973;52.368;4.940;2022-09-03T05:41:07;17.30;99.90
40255;DHT22;25973;52.368;4.940;2022-09-03T05:43:34;17.30;99.90
40255;DHT22;25973;52.368;4.940;2022-09-03T05:46:01;17.40;99.90
40255;DHT22;25973;52.368;4.940;2022-09-03T05:48:31;17.50;99.90
40255;DHT22;25973;52.368;4.940;2022-09-03T05:51:02;17.40;99.90
40255;DHT22;25973;52.368;4.940;2022-09-03T05:53:29;17.40;99.90
40255;DHT22;25973;52.368;4.940;2022-09-03T05:55:58;17.50;99.90
40255;DHT22;25973;52.368;4.940;2022-09-03T05:58:24;17.50;99.90
40255;DHT22;25973;52.368;4.940;2022-09-03T06:00:51;17.50;99.90
40255;DHT22;25973;52.368;4.940;2022-09-03T06:03:16;17.50;99.90
40255;DHT22;25973;52.368;4.940;2022-09-03T06:05:54;17.50;99.90
40255;DHT22;25973;52.368;4.940;2022-09-03T06:08:21;17.60;99.90
40255;DHT22;25973;52.368;4.940;2022-09-03T06:10:47;17.60;99.90
40255;DHT22;25973;52.368;4.940;2022-09-03T06:13:12;17.70;99.90
40255;DHT22;25973;52.368;4.940;2022-09-03T06:15:38;17.80;99.90
40255;DHT22;25973;52.368;4.940;2022-09-03T06:18:05;17.90;99.90
40255;DHT22;25973;52.368;4.940;2022-09-03T06:20:31;18.00;99.90
40255;DHT22;25973;52.368;4.940;2022-09-03T06:22:57;18.00;99.90
40255;DHT22;25973;52.368;4.940;2022-09-03T06:25:23;18.00;99.90
40255;DHT22;25973;52.368;4.940;2022-09-03T06:27:49;18.10;99.80
40255;DHT22;25973;52.368;4.940;2022-09-03T06:30:15;18.10;99.80
40255;DHT22;25973;52.368;4.940;2022-09-03T06:32:47;18.20;99.90
40255;DHT22;25973;52.368;4.940;2022-09-03T06:35:14;18.30;99.50
40255;DHT22;25973;52.368;4.940;2022-09-03T06:37:41;18.40;99.50
40255;DHT22;25973;52.368;4.940;2022-09-03T06:40:07;18.40;99.30
40255;DHT22;25973;52.368;4.940;2022-09-03T06:42:37;18.50;99.40
40255;DHT22;25973;52.368;4.940;2022-09-03T06:45:03;18.50;99.30
40255;DHT22;25973;52.368;4.940;2022-09-03T06:47:31;18.60;99.20
40255;DHT22;25973;52.368;4.940;2022-09-03T06:49:58;18.60;99.10
40255;DHT22;25973;52.368;4.940;2022-09-03T06:52:24;18.60;99.20
40255;DHT22;25973;52.368;4.940;2022-09-03T06:54:50;18.60;99.10
40255;DHT22;25973;52.368;4.940;2022-09-03T06:57:16;18.70;99.10
40255;DHT22;25973;52.368;4.940;2022-09-03T06:59:41;18.90;99.00
40255;DHT22;25973;52.368;4.940;2022-09-03T07:02:08;19.00;98.70
40255;DHT22;25973;52.368;4.940;2022-09-03T07:04:34;19.10;98.30
40255;DHT22;25973;52.368;4.940;2022-09-03T07:06:59;19.30;98.50
40255;DHT22;25973;52.368;4.940;2022-09-03T07:09:25;19.60;97.90
40255;DHT22;25973;52.368;4.940;2022-09-03T07:11:51;19.90;97.40
40255;DHT22;25973;52.368;4.940;2022-09-03T07:14:18;20.30;96.80
40255;DHT22;25973;52.368;4.940;2022-09-03T07:16:44;20.70;96.50
40255;DHT22;25973;52.368;4.940;2022-09-03T07:19:10;21.20;96.10
40255;DHT22;25973;52.368;4.940;2022-09-03T07:21:38;21.60;95.30
40255;DHT22;25973;52.368;4.940;2022-09-03T07:24:06;22.00;94.70
40255;DHT22;25973;52.368;4.940;2022-09-03T07:26:34;22.20;94.40
40255;DHT22;25973;52.368;4.940;2022-09-03T07:29:00;22.50;94.10
40255;DHT22;25973;52.368;4.940;2022-09-03T07:34:01;23.20;93.30
40255;DHT22;25973;52.368;4.940;2022-09-03T07:36:34;23.50;92.60
40255;DHT22;25973;52.368;4.940;2022-09-03T07:39:02;23.60;92.80
40255;DHT22;25973;52.368;4.940;2022-09-03T07:41:28;23.70;92.70
40255;DHT22;25973;52.368;4.940;2022-09-03T07:43:57;24.00;92.40
40255;DHT22;25973;52.368;4.940;2022-09-03T07:46:25;24.20;91.90
40255;DHT22;25973;52.368;4.940;2022-09-03T07:48:55;24.30;91.80
40255;DHT22;25973;52.368;4.940;2022-09-03T07:51:26;24.50;91.90
40255;DHT22;25973;52.368;4.940;2022-09-03T07:53:53;24.80;91.60
40255;DHT22;25973;52.368;4.940;2022-09-03T07:56:20;25.20;91.80
40255;DHT22;25973;52.368;4.940;2022-09-03T07:58:46;25.50;91.50
40255;DHT22;25973;52.368;4.940;2022-09-03T08:01:14;25.80;90.80
40255;DHT22;25973;52.368;4.940;2022-09-03T08:03:46;25.80;90.70
40255;DHT22;25973;52.368;4.940;2022-09-03T08:06:12;25.60;90.70
40255;DHT22;25973;52.368;4.940;2022-09-03T08:08:38;25.70;90.70
40255;DHT22;25973;52.368;4.940;2022-09-03T08:11:09;25.40;90.40
40255;DHT22;25973;52.368;4.940;2022-09-03T08:13:53;25.30;90.70
40255;DHT22;25973;52.368;4.940;2022-09-03T08:16:19;25.20;91.00
40255;DHT22;25973;52.368;4.940;2022-09-03T08:18:44;25.00;90.80
40255;DHT22;25973;52.368;4.940;2022-09-03T08:21:17;25.00;90.80
40255;DHT22;25973;52.368;4.940;2022-09-03T08:23:46;24.90;90.80
40255;DHT22;25973;52.368;4.940;2022-09-03T08:26:13;25.00;91.10
40255;DHT22;25973;52.368;4.940;2022-09-03T08:28:39;25.10;91.00
40255;DHT22;25973;52.368;4.940;2022-09-03T08:31:12;25.20;91.00
40255;DHT22;25973;52.368;4.940;2022-09-03T08:33:46;25.20;90.80
40255;DHT22;25973;52.368;4.940;2022-09-03T08:36:14;25.10;90.80
40255;DHT22;25973;52.368;4.940;2022-09-03T08:38:42;25.10;91.30
40255;DHT22;25973;52.368;4.940;2022-09-03T08:41:15;25.00;90.80
40255;DHT22;25973;52.368;4.940;2022-09-03T08:47:11;25.10;90.60
40255;DHT22;25973;52.368;4.940;2022-09-03T08:49:44;24.80;91.00
40255;DHT22;25973;52.368;4.940;2022-09-03T08:55:16;24.70;91.20
40255;DHT22;25973;52.368;4.940;2022-09-03T08:57:47;24.90;91.20
40255;DHT22;25973;52.368;4.940;2022-09-03T09:00:14;25.00;91.50
40255;DHT22;25973;52.368;4.940;2022-09-03T09:05:59;25.00;92.30
40255;DHT22;25973;52.368;4.940;2022-09-03T09:11:37;24.80;92.60
40255;DHT22;25973;52.368;4.940;2022-09-03T09:14:14;24.80;92.50
40255;DHT22;25973;52.368;4.940;2022-09-03T09:17:12;24.80;92.70
40255;DHT22;25973;52.368;4.940;2022-09-03T09:20:10;24.80;92.60
40255;DHT22;25973;52.368;4.940;2022-09-03T09:22:42;24.70;92.60
40255;DHT22;25973;52.368;4.940;2022-09-03T09:25:21;24.60;92.90
40255;DHT22;25973;52.368;4.940;2022-09-03T09:27:51;24.60;92.90
40255;DHT22;25973;52.368;4.940;2022-09-03T09:30:19;24.60;93.20
40255;DHT22;25973;52.368;4.940;2022-09-03T09:32:45;24.70;92.80
40255;DHT22;25973;52.368;4.940;2022-09-03T09:35:12;24.60;92.60
40255;DHT22;25973;52.368;4.940;2022-09-03T09:37:49;24.50;92.90
40255;DHT22;25973;52.368;4.940;2022-09-03T09:40:26;24.30;93.10
40255;DHT22;25973;52.368;4.940;2022-09-03T09:43:15;24.30;93.00
40255;DHT22;25973;52.368;4.940;2022-09-03T09:45:47;24.30;92.50
40255;DHT22;25973;52.368;4.940;2022-09-03T09:50:47;24.00;93.00
40255;DHT22;25973;52.368;4.940;2022-09-03T09:53:16;23.90;93.00
40255;DHT22;25973;52.368;4.940;2022-09-03T09:55:56;23.80;93.30
40255;DHT22;25973;52.368;4.940;2022-09-03T09:58:25;23.90;93.40
40255;DHT22;25973;52.368;4.940;2022-09-03T10:03:46;24.00;93.10
40255;DHT22;25973;52.368;4.940;2022-09-03T10:06:13;24.10;93.10
40255;DHT22;25973;52.368;4.940;2022-09-03T10:09:13;24.10;92.80
40255;DHT22;25973;52.368;4.940;2022-09-03T10:11:42;24.20;92.70
40255;DHT22;25973;52.368;4.940;2022-09-03T10:14:22;24.30;92.70
40255;DHT22;25973;52.368;4.940;2022-09-03T10:16:57;24.50;92.40
40255;DHT22;25973;52.368;4.940;2022-09-03T10:19:39;24.80;92.30
40255;DHT22;25973;52.368;4.940;2022-09-03T10:22:18;24.80;91.90
40255;DHT22;25973;52.368;4.940;2022-09-03T10:24:57;25.00;92.00
40255;DHT22;25973;52.368;4.940;2022-09-03T10:27:23;25.40;91.60
40255;DHT22;25973;52.368;4.940;2022-09-03T10:29:50;25.80;91.40
40255;DHT22;25973;52.368;4.940;2022-09-03T10:35:01;26.20;91.00
40255;DHT22;25973;52.368;4.940;2022-09-03T10:37:37;26.60;90.50
40255;DHT22;25973;52.368;4.940;2022-09-03T10:40:10;27.10;89.40
40255;DHT22;25973;52.368;4.940;2022-09-03T10:51:15;29.00;83.90
40255;DHT22;25973;52.368;4.940;2022-09-03T10:54:00;29.30;84.30
40255;DHT22;25973;52.368;4.940;2022-09-03T11:07:44;30.20;82.60
40255;DHT22;25973;52.368;4.940;2022-09-03T11:10:33;29.90;82.50
40255;DHT22;25973;52.368;4.940;2022-09-03T11:15:50;29.30;83.10
40255;DHT22;25973;52.368;4.940;2022-09-03T11:18:30;29.50;83.30
40255;DHT22;25973;52.368;4.940;2022-09-03T11:21:00;29.50;81.90
40255;DHT22;25973;52.368;4.940;2022-09-03T11:23:32;29.10;83.10
40255;DHT22;25973;52.368;4.940;2022-09-03T11:26:04;28.70;83.90
40255;DHT22;25973;52.368;4.940;2022-09-03T11:34:29;26.60;86.80
40255;DHT22;25973;52.368;4.940;2022-09-03T11:37:19;26.20;87.00
40255;DHT22;25973;52.368;4.940;2022-09-03T11:39:57;26.00;87.00
40255;DHT22;25973;52.368;4.940;2022-09-03T11:42:43;26.40;87.20
40255;DHT22;25973;52.368;4.940;2022-09-03T11:47:48;27.10;85.70
40255;DHT22;25973;52.368;4.940;2022-09-03T11:50:26;26.70;86.50
40255;DHT22;25973;52.368;4.940;2022-09-03T11:58:37;25.80;87.80
40255;DHT22;25973;52.368;4.940;2022-09-03T12:01:11;25.60;88.10
40255;DHT22;25973;52.368;4.940;2022-09-03T12:03:56;25.60;88.00
40255;DHT22;25973;52.368;4.940;2022-09-03T12:15:39;25.60;88.00
40255;DHT22;25973;52.368;4.940;2022-09-03T12:18:30;25.60;88.40
40255;DHT22;25973;52.368;4.940;2022-09-03T12:23:39;25.60;88.20
40255;DHT22;25973;52.368;4.940;2022-09-03T12:26:10;25.60;88.00
40255;DHT22;25973;52.368;4.940;2022-09-03T12:28:41;25.70;87.80
40255;DHT22;25973;52.368;4.940;2022-09-03T12:31:09;25.60;88.50
40255;DHT22;25973;52.368;4.940;2022-09-03T12:33:50;25.70;89.40
40255;DHT22;25973;52.368;4.940;2022-09-03T12:36:21;25.70;89.60
40255;DHT22;25973;52.368;4.940;2022-09-03T12:38:48;25.70;89.60
40255;DHT22;25973;52.368;4.940;2022-09-03T12:43:57;25.70;89.00
40255;DHT22;25973;52.368;4.940;2022-09-03T12:46:40;25.80;88.60
40255;DHT22;25973;52.368;4.940;2022-09-03T12:49:06;25.70;88.90
40255;DHT22;25973;52.368;4.940;2022-09-03T12:51:42;25.80;88.50
40255;DHT22;25973;52.368;4.940;2022-09-03T12:54:11;25.80;89.10
40255;DHT22;25973;52.368;4.940;2022-09-03T12:56:51;25.90;88.90
40255;DHT22;25973;52.368;4.940;2022-09-03T12:59:19;25.90;88.40
40255;DHT22;25973;52.368;4.940;2022-09-03T13:01:48;25.90;88.40
40255;DHT22;25973;52.368;4.940;2022-09-03T13:04:22;25.90;87.70
40255;DHT22;25973;52.368;4.940;2022-09-03T13:06:59;25.80;88.60
40255;DHT22;25973;52.368;4.940;2022-09-03T13:09:28;25.90;88.50
40255;DHT22;25973;52.368;4.940;2022-09-03T13:11:55;25.90;89.30
40255;DHT22;25973;52.368;4.940;2022-09-03T13:14:25;25.90;88.20
40255;DHT22;25973;52.368;4.940;2022-09-03T13:19:55;25.90;88.50
40255;DHT22;25973;52.368;4.940;2022-09-03T13:25:41;26.00;88.50
40255;DHT22;25973;52.368;4.940;2022-09-03T13:28:40;26.10;87.90
40255;DHT22;25973;52.368;4.940;2022-09-03T13:34:00;26.20;87.60
40255;DHT22;25973;52.368;4.940;2022-09-03T13:36:40;26.10;87.20
40255;DHT22;25973;52.368;4.940;2022-09-03T13:39:26;26.10;87.90
40255;DHT22;25973;52.368;4.940;2022-09-03T13:42:10;26.10;87.90
40255;DHT22;25973;52.368;4.940;2022-09-03T13:45:05;26.10;88.20
40255;DHT22;25973;52.368;4.940;2022-09-03T13:47:49;26.00;88.70
40255;DHT22;25973;52.368;4.940;2022-09-03T13:50:43;26.00;88.90
40255;DHT22;25973;52.368;4.940;2022-09-03T13:53:23;26.10;88.20
40255;DHT22;25973;52.368;4.940;2022-09-03T13:55:56;26.20;87.70
40255;DHT22;25973;52.368;4.940;2022-09-03T13:58:50;26.20;87.30
40255;DHT22;25973;52.368;4.940;2022-09-03T14:01:25;26.20;88.00
40255;DHT22;25973;52.368;4.940;2022-09-03T14:03:56;26.30;88.00
40255;DHT22;25973;52.368;4.940;2022-09-03T14:06:41;26.30;86.30
40255;DHT22;25973;52.368;4.940;2022-09-03T14:09:19;26.30;86.50
40255;DHT22;25973;52.368;4.940;2022-09-03T14:19:47;26.20;86.50
40255;DHT22;25973;52.368;4.940;2022-09-03T14:22:39;26.20;86.40
40255;DHT22;25973;52.368;4.940;2022-09-03T14:25:17;26.20;86.50
40255;DHT22;25973;52.368;4.940;2022-09-03T14:27:43;26.20;86.60
40255;DHT22;25973;52.368;4.940;2022-09-03T14:33:09;26.30;87.20
40255;DHT22;25973;52.368;4.940;2022-09-03T14:35:51;26.30;86.60
40255;DHT22;25973;52.368;4.940;2022-09-03T14:44:07;26.30;86.80
40255;DHT22;25973;52.368;4.940;2022-09-03T14:49:16;26.30;86.40
40255;DHT22;25973;52.368;4.940;2022-09-03T14:58:17;26.40;87.80
40255;DHT22;25973;52.368;4.940;2022-09-03T15:00:48;26.40;85.90
40255;DHT22;25973;52.368;4.940;2022-09-03T15:06:35;26.30;87.50
40255;DHT22;25973;52.368;4.940;2022-09-03T15:09:22;26.30;87.70
40255;DHT22;25973;52.368;4.940;2022-09-03T15:12:07;26.30;87.10
40255;DHT22;25973;52.368;4.940;2022-09-03T15:14:41;26.30;87.50
40255;DHT22;25973;52.368;4.940;2022-09-03T15:17:19;26.20;87.40
40255;DHT22;25973;52.368;4.940;2022-09-03T15:20:10;26.20;87.40
40255;DHT22;25973;52.368;4.940;2022-09-03T15:28:24;26.20;86.70
40255;DHT22;25973;52.368;4.940;2022-09-03T15:31:13;26.20;87.80
40255;DHT22;25973;52.368;4.940;2022-09-03T15:36:23;26.30;88.40
40255;DHT22;25973;52.368;4.940;2022-09-03T15:38:59;26.20;87.50
40255;DHT22;25973;52.368;4.940;2022-09-03T15:41:45;26.20;88.30
40255;DHT22;25973;52.368;4.940;2022-09-03T15:44:16;26.20;90.60
40255;DHT22;25973;52.368;4.940;2022-09-03T15:49:24;26.20;90.40
40255;DHT22;25973;52.368;4.940;2022-09-03T15:52:07;26.20;90.30
40255;DHT22;25973;52.368;4.940;2022-09-03T16:00:50;26.20;90.70
40255;DHT22;25973;52.368;4.940;2022-09-03T16:03:21;26.20;91.00
40255;DHT22;25973;52.368;4.940;2022-09-03T16:06:30;26.20;90.70
40255;DHT22;25973;52.368;4.940;2022-09-03T16:14:44;26.00;91.30
40255;DHT22;25973;52.368;4.940;2022-09-03T16:20:33;25.90;91.90
40255;DHT22;25973;52.368;4.940;2022-09-03T16:23:19;25.90;92.30
40255;DHT22;25973;52.368;4.940;2022-09-03T16:26:08;25.80;92.10
40255;DHT22;25973;52.368;4.940;2022-09-03T16:28:38;25.70;91.90
40255;DHT22;25973;52.368;4.940;2022-09-03T16:34:32;25.50;91.90
40255;DHT22;25973;52.368;4.940;2022-09-03T16:37:28;25.50;92.20
40255;DHT22;25973;52.368;4.940;2022-09-03T16:40:21;25.50;92.30
40255;DHT22;25973;52.368;4.940;2022-09-03T16:46:01;25.40;93.10
40255;DHT22;25973;52.368;4.940;2022-09-03T16:51:33;25.30;93.40
40255;DHT22;25973;52.368;4.940;2022-09-03T17:00:11;25.20;94.00
40255;DHT22;25973;52.368;4.940;2022-09-03T17:03:06;25.10;94.20
40255;DHT22;25973;52.368;4.940;2022-09-03T17:05:57;25.00;94.80
40255;DHT22;25973;52.368;4.940;2022-09-03T17:12:01;24.80;95.50
40255;DHT22;25973;52.368;4.940;2022-09-03T17:14:58;24.80;95.70
40255;DHT22;25973;52.368;4.940;2022-09-03T17:26:09;24.60;96.00
40255;DHT22;25973;52.368;4.940;2022-09-03T17:29:02;24.60;96.40
40255;DHT22;25973;52.368;4.940;2022-09-03T17:31:47;24.50;96.80
40255;DHT22;25973;52.368;4.940;2022-09-03T17:34:28;24.40;97.30
40255;DHT22;25973;52.368;4.940;2022-09-03T17:45:38;24.20;98.70
40255;DHT22;25973;52.368;4.940;2022-09-03T17:51:04;24.10;99.20
40255;DHT22;25973;52.368;4.940;2022-09-03T17:53:43;23.90;99.60
40255;DHT22;25973;52.368;4.940;2022-09-03T17:56:22;23.90;99.60
40255;DHT22;25973;52.368;4.940;2022-09-03T17:58:54;23.80;99.80
40255;DHT22;25973;52.368;4.940;2022-09-03T18:01:27;23.80;99.90
40255;DHT22;25973;52.368;4.940;2022-09-03T18:07:03;23.60;99.90
40255;DHT22;25973;52.368;4.940;2022-09-03T18:09:55;23.60;99.90
40255;DHT22;25973;52.368;4.940;2022-09-03T18:12:59;23.60;99.90
40255;DHT22;25973;52.368;4.940;2022-09-03T18:15:35;23.50;99.90
40255;DHT22;25973;52.368;4.940;2022-09-03T18:18:09;23.40;99.90
40255;DHT22;25973;52.368;4.940;2022-09-03T18:21:00;23.40;99.90
40255;DHT22;25973;52.368;4.940;2022-09-03T18:23:51;23.40;99.90
40255;DHT22;25973;52.368;4.940;2022-09-03T18:26:43;23.30;99.90
40255;DHT22;25973;52.368;4.940;2022-09-03T18:29:45;23.30;99.90
40255;DHT22;25973;52.368;4.940;2022-09-03T18:32:31;23.30;99.90
40255;DHT22;25973;52.368;4.940;2022-09-03T18:35:15;23.20;99.90
40255;DHT22;25973;52.368;4.940;2022-09-03T18:38:02;23.20;99.90
40255;DHT22;25973;52.368;4.940;2022-09-03T18:40:55;23.10;99.90
40255;DHT22;25973;52.368;4.940;2022-09-03T18:43:57;23.00;99.90
40255;DHT22;25973;52.368;4.940;2022-09-03T18:50:25;22.80;99.90
40255;DHT22;25973;52.368;4.940;2022-09-03T18:56:14;22.70;99.90
40255;DHT22;25973;52.368;4.940;2022-09-03T18:59:21;22.70;99.90
40255;DHT22;25973;52.368;4.940;2022-09-03T19:02:26;22.70;99.90
40255;DHT22;25973;52.368;4.940;2022-09-03T19:05:30;22.60;99.90
40255;DHT22;25973;52.368;4.940;2022-09-03T19:08:24;22.60;99.90
40255;DHT22;25973;52.368;4.940;2022-09-03T19:11:27;22.50;99.90
40255;DHT22;25973;52.368;4.940;2022-09-03T19:18:00;22.50;99.90
40255;DHT22;25973;52.368;4.940;2022-09-03T19:21:14;22.50;99.90
40255;DHT22;25973;52.368;4.940;2022-09-03T19:24:01;22.50;99.90
40255;DHT22;25973;52.368;4.940;2022-09-03T19:30:13;22.50;99.90
40255;DHT22;25973;52.368;4.940;2022-09-03T19:33:14;22.50;99.90
40255;DHT22;25973;52.368;4.940;2022-09-03T19:36:05;22.40;99.90
40255;DHT22;25973;52.368;4.940;2022-09-03T19:39:02;22.50;99.90
40255;DHT22;25973;52.368;4.940;2022-09-03T19:42:09;22.40;99.90
40255;DHT22;25973;52.368;4.940;2022-09-03T19:48:05;22.40;99.90
40255;DHT22;25973;52.368;4.940;2022-09-03T19:51:08;22.40;99.90
40255;DHT22;25973;52.368;4.940;2022-09-03T19:53:52;22.40;99.90
40255;DHT22;25973;52.368;4.940;2022-09-03T19:56:39;22.40;99.90
40255;DHT22;25973;52.368;4.940;2022-09-03T19:59:25;22.30;99.90
40255;DHT22;25973;52.368;4.940;2022-09-03T20:02:12;22.30;99.90
40255;DHT22;25973;52.368;4.940;2022-09-03T20:05:00;22.30;99.90
40255;DHT22;25973;52.368;4.940;2022-09-03T20:07:48;22.30;99.90
40255;DHT22;25973;52.368;4.940;2022-09-03T20:10:33;22.40;99.90
40255;DHT22;25973;52.368;4.940;2022-09-03T20:13:15;22.40;99.90
40255;DHT22;25973;52.368;4.940;2022-09-03T20:15:53;22.40;99.90
40255;DHT22;25973;52.368;4.940;2022-09-03T20:21:21;22.30;99.90
40255;DHT22;25973;52.368;4.940;2022-09-03T20:30:06;22.10;99.90
40255;DHT22;25973;52.368;4.940;2022-09-03T20:35:57;22.10;99.90
40255;DHT22;25973;52.368;4.940;2022-09-03T20:41:35;22.00;99.90